Houn Maru — JG5489 — position and weather

sailwx.info

Track history (hours):
 
Tides and Currents Weather Stations Pressure Air Temp Water Temp Dewpoint Dewpoint Depression Visibility Wind Speed Wind Dir Waves Ship Positions

Houn Maru

Last reported at 2016-May-02 00:15 UTC. Time now 2016-May-02 01:28 UTC.
Position N 34°25' E 135°14'.

Length 91 m; draft 6 m.

Type: Tanker. MMSI: 431101172.

Date/timePositionNaut miles runAvg speedWind from/ knotsBaromVisibWave heightAir tempDewpointWater temp
2016-May-02 00:15N 34°25' E 135°14'2 3.3
2016-May-01 23:34N 34°23' E 135°13'0 0.0
2016-May-01 22:33N 34°23' E 135°13'0 0.0
2016-May-01 21:30N 34°23' E 135°13'0 0.0
2016-May-01 20:33N 34°23' E 135°13'0 0.0
2016-May-01 19:33N 34°23' E 135°13'0 0.0
2016-May-01 18:33N 34°23' E 135°13'0 0.0
2016-May-01 17:33N 34°23' E 135°13'0 0.0
2016-May-01 16:30N 34°23' E 135°13'0 0.0
2016-May-01 15:30N 34°23' E 135°13'0 0.0
2016-May-01 14:33N 34°23' E 135°13'0 0.0
2016-May-01 13:33N 34°23' E 135°13'4 4.3
2016-May-01 12:33N 34°26' E 135°09'1211.9
2016-May-01 11:33N 34°37' E 135°02'6 0.2
2016-Apr-30 01:27N 34°36' E 134°54'1010.7
2016-Apr-30 00:33N 34°36' E 135°06'1212.1
2016-Apr-29 23:33N 34°36' E 135°21'  
2016-Apr-25 06:31N 34°35' E 135°27'4 4.5
2016-Apr-25 05:33N 34°35' E 135°22'1211.9
2016-Apr-25 04:33N 34°27' E 135°12'3 2.5
2016-Apr-25 03:31N 34°25' E 135°14'0 0.0
2016-Apr-25 01:31N 34°25' E 135°14'0 0.0
2016-Apr-25 00:31N 34°25' E 135°14'2 2.3
2016-Apr-24 23:33N 34°23' E 135°13'0 0.0
2016-Apr-24 22:31N 34°23' E 135°13'0 0.0
2016-Apr-24 21:31N 34°23' E 135°13'0 0.0
2016-Apr-24 20:28N 34°23' E 135°13'0 0.0
2016-Apr-24 19:31N 34°23' E 135°13'0 0.0
2016-Apr-24 18:31N 34°23' E 135°13'0 0.0
2016-Apr-24 17:19N 34°23' E 135°13'0 0.0
2016-Apr-24 15:10N 34°23' E 135°13'0 0.0
2016-Apr-24 14:16N 34°23' E 135°13'2 3.2
2016-Apr-24 13:33N 34°25' E 135°10'1110.7
2016-Apr-24 12:33N 34°34' E 135°04'6 6.5
2016-Apr-24 11:33N 34°36' E 134°57'4 0.1
2016-Apr-23 00:33N 34°38' E 135°00'1312.5
2016-Apr-22 23:33N 34°28' E 135°09'5 5.0
2016-Apr-22 22:32N 34°23' E 135°12'0 0.0
2016-Apr-22 21:32N 34°23' E 135°12'0 0.0
2016-Apr-22 20:32N 34°23' E 135°12'0 0.1
2016-Apr-22 19:32N 34°23' E 135°12'0 0.0
2016-Apr-22 18:32N 34°23' E 135°12'0 0.0
2016-Apr-22 17:32N 34°23' E 135°12'0 0.0
2016-Apr-22 16:32N 34°23' E 135°12'0 0.0
2016-Apr-22 15:08N 34°23' E 135°12'0 0.0
2016-Apr-22 14:32N 34°23' E 135°12'0 0.1
2016-Apr-22 13:32N 34°23' E 135°12'0 0.0
2016-Apr-22 11:32N 34°23' E 135°12'0 0.0
2016-Apr-22 09:26N 34°23' E 135°12'0 0.1
2016-Apr-22 08:20N 34°23' E 135°12'0 0.0
2016-Apr-22 07:20N 34°23' E 135°12'3 3.3
2016-Apr-22 06:33N 34°25' E 135°14'0 0.1
2016-Apr-22 01:27N 34°25' E 135°14'2 1.7
2016-Apr-22 00:30N 34°23' E 135°13'  
Track history (hours):
 
Tides and Currents Weather Stations Pressure Air Temp Water Temp Dewpoint Dewpoint Depression Visibility Wind Speed Wind Dir Waves Ship Positions

Houn Maru

Last reported at 2016-May-02 00:15 UTC. Time now 2016-May-02 01:28 UTC.
Position N 34°25' E 135°14'.

Length 91 m; draft 6 m.

Type: Tanker. MMSI: 431101172.

Date/timePositionNaut miles runAvg speedWind from/ knotsBaromVisibWave heightAir tempDewpointWater temp
2016-May-02 00:15N 34°25' E 135°14'2 3.3
2016-May-01 23:34N 34°23' E 135°13'0 0.0
2016-May-01 22:33N 34°23' E 135°13'0 0.0
2016-May-01 21:30N 34°23' E 135°13'0 0.0
2016-May-01 20:33N 34°23' E 135°13'0 0.0
2016-May-01 19:33N 34°23' E 135°13'0 0.0
2016-May-01 18:33N 34°23' E 135°13'0 0.0
2016-May-01 17:33N 34°23' E 135°13'0 0.0
2016-May-01 16:30N 34°23' E 135°13'0 0.0
2016-May-01 15:30N 34°23' E 135°13'0 0.0
2016-May-01 14:33N 34°23' E 135°13'0 0.0
2016-May-01 13:33N 34°23' E 135°13'4 4.3
2016-May-01 12:33N 34°26' E 135°09'1211.9
2016-May-01 11:33N 34°37' E 135°02'6 0.2
2016-Apr-30 01:27N 34°36' E 134°54'1010.7
2016-Apr-30 00:33N 34°36' E 135°06'1212.1
2016-Apr-29 23:33N 34°36' E 135°21'  
2016-Apr-25 06:31N 34°35' E 135°27'4 4.5
2016-Apr-25 05:33N 34°35' E 135°22'1211.9
2016-Apr-25 04:33N 34°27' E 135°12'3 2.5
2016-Apr-25 03:31N 34°25' E 135°14'0 0.0
2016-Apr-25 01:31N 34°25' E 135°14'0 0.0
2016-Apr-25 00:31N 34°25' E 135°14'2 2.3
2016-Apr-24 23:33N 34°23' E 135°13'0 0.0
2016-Apr-24 22:31N 34°23' E 135°13'0 0.0
2016-Apr-24 21:31N 34°23' E 135°13'0 0.0
2016-Apr-24 20:28N 34°23' E 135°13'0 0.0
2016-Apr-24 19:31N 34°23' E 135°13'0 0.0
2016-Apr-24 18:31N 34°23' E 135°13'0 0.0
2016-Apr-24 17:19N 34°23' E 135°13'0 0.0
2016-Apr-24 15:10N 34°23' E 135°13'0 0.0
2016-Apr-24 14:16N 34°23' E 135°13'2 3.2
2016-Apr-24 13:33N 34°25' E 135°10'1110.7
2016-Apr-24 12:33N 34°34' E 135°04'6 6.5
2016-Apr-24 11:33N 34°36' E 134°57'4 0.1
2016-Apr-23 00:33N 34°38' E 135°00'1312.5
2016-Apr-22 23:33N 34°28' E 135°09'5 5.0
2016-Apr-22 22:32N 34°23' E 135°12'0 0.0
2016-Apr-22 21:32N 34°23' E 135°12'0 0.0
2016-Apr-22 20:32N 34°23' E 135°12'0 0.1
2016-Apr-22 19:32N 34°23' E 135°12'0 0.0
2016-Apr-22 18:32N 34°23' E 135°12'0 0.0
2016-Apr-22 17:32N 34°23' E 135°12'0 0.0
2016-Apr-22 16:32N 34°23' E 135°12'0 0.0
2016-Apr-22 15:08N 34°23' E 135°12'0 0.0
2016-Apr-22 14:32N 34°23' E 135°12'0 0.1
2016-Apr-22 13:32N 34°23' E 135°12'0 0.0
2016-Apr-22 11:32N 34°23' E 135°12'0 0.0
2016-Apr-22 09:26N 34°23' E 135°12'0 0.1
2016-Apr-22 08:20N 34°23' E 135°12'0 0.0
2016-Apr-22 07:20N 34°23' E 135°12'3 3.3
2016-Apr-22 06:33N 34°25' E 135°14'0 0.1
2016-Apr-22 01:27N 34°25' E 135°14'2 1.7
2016-Apr-22 00:30N 34°23' E 135°13'  

Dump ship's entire track history